Time;durP1;ratioP1;P1;durP2;ratioP2;P2;SDS_P1;SDS_P2;PMS_P1;PMS_P2;Temp;Humidity;BMP_temperature;BMP_pressure;BME280_temperature;BME280_humidity;BME280_pressure;Samples;Min_cycle;Max_cycle;Signal;HPM_P1;HPM_P2
2023/12/24 00:01:04;;;;;;;2.78;0.85;;;9.10;99.90;;;;;;4994514;28;20090;-77
2023/12/24 00:03:30;;;;;;;0.88;0.60;;;9.00;99.90;;;;;;5009955;28;20461;-75
2023/12/24 00:05:55;;;;;;;7.55;1.33;;;9.10;99.90;;;;;;5010963;28;20095;-77
2023/12/24 00:08:21;;;;;;;13.77;1.85;;;9.10;99.90;;;;;;5010825;28;20046;-77
2023/12/24 00:10:47;;;;;;;5.65;1.58;;;9.10;99.90;;;;;;4994621;28;20053;-77
2023/12/24 00:13:12;;;;;;;1.30;1.08;;;9.10;99.90;;;;;;4994136;28;20046;-77
2023/12/24 00:15:38;;;;;;;1.70;0.68;;;9.10;99.90;;;;;;4993770;28;20514;-77
2023/12/24 00:18:04;;;;;;;5.45;1.30;;;9.10;99.90;;;;;;4991986;28;20052;-77
2023/12/24 00:20:30;;;;;;;6.35;1.67;;;9.10;99.90;;;;;;4999485;28;20065;-77
2023/12/24 00:23:06;;;;;;;12.25;0.93;;;9.10;99.90;;;;;;4999926;28;20060;-77
2023/12/24 00:25:34;;;;;;;4.03;0.75;;;9.10;99.90;;;;;;5016614;28;20058;-77
2023/12/24 00:27:59;;;;;;;6.80;1.58;;;9.10;99.90;;;;;;4998947;28;20454;-77
2023/12/24 00:30:29;;;;;;;11.73;1.77;;;9.10;99.90;;;;;;5001339;28;20075;-78
2023/12/24 00:32:58;;;;;;;2.00;0.90;;;9.10;99.90;;;;;;5001894;28;20046;-76
2023/12/24 00:35:24;;;;;;;5.50;0.90;;;9.10;99.90;;;;;;4986951;28;20034;-77
2023/12/24 00:37:51;;;;;;;2.42;1.33;;;9.10;99.90;;;;;;5016351;28;20115;-76
2023/12/24 00:40:18;;;;;;;5.88;1.33;;;9.20;99.90;;;;;;5015465;28;20030;-76
2023/12/24 00:42:44;;;;;;;5.75;1.10;;;9.20;99.90;;;;;;4999205;28;20073;-77
2023/12/24 00:45:11;;;;;;;2.45;0.73;;;9.20;99.90;;;;;;4998767;28;20106;-78
2023/12/24 00:47:37;;;;;;;2.83;0.60;;;9.20;99.90;;;;;;5000047;28;20095;-77
2023/12/24 00:50:05;;;;;;;1.40;0.90;;;9.20;99.90;;;;;;5009304;28;20053;-76
2023/12/24 00:52:31;;;;;;;4.32;0.98;;;9.20;99.90;;;;;;5009517;28;20050;-76
2023/12/24 00:54:56;;;;;;;7.50;1.35;;;9.20;99.90;;;;;;5013331;28;20041;-76
2023/12/24 00:57:22;;;;;;;3.53;1.08;;;9.20;99.90;;;;;;5015104;28;20054;-76
2023/12/24 00:59:48;;;;;;;4.78;1.13;;;9.20;99.90;;;;;;5016189;28;20050;-76
2023/12/24 01:02:13;;;;;;;1.73;1.00;;;9.20;99.90;;;;;;5014604;28;20042;-77
2023/12/24 01:04:39;;;;;;;2.45;1.33;;;9.20;99.90;;;;;;5016121;28;20053;-76
2023/12/24 01:07:05;;;;;;;5.20;1.30;;;9.20;99.90;;;;;;4998545;28;20049;-76
2023/12/24 01:09:30;;;;;;;13.63;1.65;;;9.20;99.90;;;;;;4994051;28;20041;-76
2023/12/24 01:11:56;;;;;;;5.35;1.55;;;9.20;99.90;;;;;;5000567;28;20614;-77
2023/12/24 01:14:21;;;;;;;4.13;1.08;;;9.20;99.90;;;;;;4994227;28;20049;-77
2023/12/24 01:16:47;;;;;;;1.10;0.88;;;9.30;99.90;;;;;;4993470;28;20281;-76
2023/12/24 01:19:13;;;;;;;8.40;0.82;;;9.20;99.90;;;;;;4991865;28;20050;-77
2023/12/24 01:21:38;;;;;;;4.22;0.88;;;9.20;99.90;;;;;;5008485;28;20102;-76
2023/12/24 01:24:05;;;;;;;3.55;2.08;;;9.20;99.90;;;;;;5008458;28;20057;-76
2023/12/24 01:26:34;;;;;;;3.72;0.85;;;9.20;99.90;;;;;;5011928;28;20056;-77
2023/12/24 01:29:00;;;;;;;4.60;0.73;;;9.20;99.90;;;;;;5022163;28;20040;-77
2023/12/24 01:31:27;;;;;;;3.92;0.70;;;9.20;99.90;;;;;;5009686;28;20080;-76
2023/12/24 01:33:53;;;;;;;7.05;1.27;;;9.30;99.90;;;;;;5008023;28;20142;-76
2023/12/24 01:36:19;;;;;;;6.10;0.88;;;9.20;99.90;;;;;;4992266;28;20081;-77
2023/12/24 01:38:48;;;;;;;6.30;1.00;;;9.30;99.90;;;;;;5010834;28;20546;-77
2023/12/24 01:41:14;;;;;;;3.00;0.60;;;9.30;99.90;;;;;;4975914;28;20065;-77
2023/12/24 01:43:42;;;;;;;4.53;0.57;;;9.30;99.90;;;;;;4992619;28;20044;-76
2023/12/24 01:46:09;;;;;;;9.27;0.93;;;9.30;99.90;;;;;;5007142;28;20101;-76
2023/12/24 01:48:36;;;;;;;1.05;0.70;;;9.20;99.90;;;;;;5006136;28;20067;-75
2023/12/24 01:51:02;;;;;;;3.65;0.43;;;9.20;99.90;;;;;;5008165;28;20040;-76
2023/12/24 01:53:29;;;;;;;0.98;0.43;;;9.20;99.90;;;;;;5007273;28;20046;-76
2023/12/24 01:55:55;;;;;;;6.55;1.33;;;9.20;99.90;;;;;;5009013;28;20046;-76
2023/12/24 01:58:21;;;;;;;3.90;0.63;;;9.20;99.90;;;;;;5008069;28;20077;-76
2023/12/24 02:00:47;;;;;;;6.22;0.68;;;9.20;99.90;;;;;;5009307;28;20045;-76
2023/12/24 02:03:13;;;;;;;4.47;0.52;;;9.20;99.90;;;;;;5011320;28;20438;-75
2023/12/24 02:05:41;;;;;;;5.68;0.65;;;9.20;99.90;;;;;;5008938;28;20522;-75
2023/12/24 02:08:07;;;;;;;4.38;0.50;;;9.20;99.90;;;;;;5006529;28;20050;-75
2023/12/24 02:10:33;;;;;;;2.72;0.93;;;9.20;99.90;;;;;;5076608;28;20034;-75
2023/12/24 02:12:59;;;;;;;2.72;0.50;;;9.20;99.90;;;;;;4991707;28;20150;-75
2023/12/24 02:15:25;;;;;;;3.42;0.70;;;9.10;99.90;;;;;;4993457;28;20041;-75
2023/12/24 02:17:52;;;;;;;1.63;0.50;;;9.20;99.90;;;;;;5031656;28;20050;-75
2023/12/24 02:20:25;;;;;;;4.82;0.60;;;9.10;99.90;;;;;;4981996;28;20045;-75
2023/12/24 02:22:50;;;;;;;2.13;0.77;;;9.20;99.90;;;;;;5014829;28;20456;-75
2023/12/24 02:25:16;;;;;;;1.85;1.10;;;9.10;99.90;;;;;;5014657;28;20046;-75
2023/12/24 02:27:42;;;;;;;1.55;0.60;;;9.10;99.90;;;;;;4997842;28;20117;-75
2023/12/24 02:30:18;;;;;;;1.00;0.70;;;9.20;99.90;;;;;;4999126;28;20406;-75
2023/12/24 02:32:48;;;;;;;1.95;0.65;;;9.10;99.90;;;;;;5014248;28;20443;-75
2023/12/24 02:35:14;;;;;;;0.88;0.65;;;9.10;99.90;;;;;;4998802;28;20037;-75
2023/12/24 02:37:40;;;;;;;1.73;0.70;;;9.10;99.90;;;;;;4991618;28;20070;-75
2023/12/24 02:40:07;;;;;;;1.73;0.98;;;9.10;99.90;;;;;;4991784;28;20042;-76
2023/12/24 02:42:33;;;;;;;2.10;0.75;;;9.10;99.90;;;;;;5008157;28;20064;-75
2023/12/24 02:44:58;;;;;;;0.80;0.60;;;9.10;99.90;;;;;;4990221;28;20050;-75
2023/12/24 02:47:24;;;;;;;0.57;0.57;;;9.10;99.90;;;;;;4992399;28;20054;-76
2023/12/24 02:49:50;;;;;;;3.33;0.93;;;9.10;99.90;;;;;;4975199;28;20077;-75
2023/12/24 02:52:15;;;;;;;6.78;1.00;;;9.10;99.90;;;;;;4992892;28;20050;-75
2023/12/24 02:54:41;;;;;;;1.08;0.98;;;9.10;99.90;;;;;;5009058;28;20139;-75
2023/12/24 02:57:07;;;;;;;2.15;0.80;;;9.10;99.90;;;;;;4991418;28;20050;-75
2023/12/24 02:59:32;;;;;;;6.90;1.23;;;9.10;99.90;;;;;;4992512;28;20034;-75
2023/12/24 03:01:58;;;;;;;3.15;0.70;;;9.10;99.90;;;;;;4989616;28;20046;-76
2023/12/24 03:04:24;;;;;;;1.52;0.90;;;9.10;99.90;;;;;;5010160;28;20050;-76
2023/12/24 03:06:49;;;;;;;3.42;0.68;;;9.10;99.90;;;;;;4994930;28;20505;-75
2023/12/24 03:09:15;;;;;;;5.57;0.57;;;9.10;99.90;;;;;;4992445;28;20490;-75
2023/12/24 03:11:41;;;;;;;5.25;0.88;;;9.10;99.90;;;;;;4989280;28;20074;-75
2023/12/24 03:14:06;;;;;;;5.20;1.23;;;9.10;99.90;;;;;;5007796;28;20105;-75
2023/12/24 03:16:32;;;;;;;0.75;0.52;;;9.10;99.90;;;;;;4976056;28;20689;-75
2023/12/24 03:18:58;;;;;;;0.80;0.68;;;9.10;99.90;;;;;;5007421;28;20053;-75
2023/12/24 03:21:23;;;;;;;1.13;0.70;;;9.10;99.90;;;;;;5008354;28;20079;-75
2023/12/24 03:23:49;;;;;;;3.17;0.70;;;9.10;99.90;;;;;;4993823;28;20042;-74
2023/12/24 03:26:22;;;;;;;3.17;0.63;;;9.10;99.90;;;;;;4982017;28;20045;-75
2023/12/24 03:28:51;;;;;;;4.00;0.98;;;9.10;99.90;;;;;;4987716;28;20395;-75
2023/12/24 03:31:17;;;;;;;4.38;0.93;;;9.10;99.90;;;;;;4994073;28;20053;-75
2023/12/24 03:33:43;;;;;;;1.23;0.60;;;9.10;99.90;;;;;;5011684;28;20037;-74
2023/12/24 03:36:09;;;;;;;2.17;0.80;;;9.10;99.90;;;;;;4988739;28;20093;-75
2023/12/24 03:38:38;;;;;;;1.13;0.50;;;9.20;99.90;;;;;;5005614;28;20107;-75
2023/12/24 03:41:03;;;;;;;2.28;0.50;;;9.20;99.90;;;;;;5008378;28;20042;-75
2023/12/24 03:43:30;;;;;;;1.23;0.77;;;9.20;99.90;;;;;;4991776;28;20058;-75
2023/12/24 03:45:56;;;;;;;2.88;1.17;;;9.20;99.90;;;;;;5007158;28;20065;-76
2023/12/24 03:48:22;;;;;;;7.00;1.98;;;9.20;99.90;;;;;;5008791;28;20109;-75
2023/12/24 03:50:48;;;;;;;3.53;0.50;;;9.20;99.90;;;;;;4976697;28;20069;-76
2023/12/24 03:53:13;;;;;;;2.95;0.68;;;9.20;99.90;;;;;;4990282;28;20692;-75
2023/12/24 03:55:39;;;;;;;1.30;0.70;;;9.20;99.90;;;;;;4992018;28;20048;-75
2023/12/24 03:58:05;;;;;;;1.25;0.77;;;9.20;99.90;;;;;;5075615;28;20076;-75
2023/12/24 04:00:30;;;;;;;3.40;0.70;;;9.30;99.90;;;;;;4991452;28;20069;-75
2023/12/24 04:02:56;;;;;;;2.40;1.00;;;9.20;99.90;;;;;;4993363;28;20049;-75
2023/12/24 04:05:22;;;;;;;3.75;0.68;;;9.30;99.90;;;;;;5010689;28;20051;-75
2023/12/24 04:07:48;;;;;;;1.65;0.60;;;9.30;99.90;;;;;;5010489;28;20069;-75
2023/12/24 04:10:14;;;;;;;1.75;0.57;;;9.30;99.90;;;;;;4982227;28;20528;-75
2023/12/24 04:12:40;;;;;;;0.45;0.40;;;9.30;99.90;;;;;;4992027;28;20172;-76
2023/12/24 04:15:07;;;;;;;0.68;0.68;;;9.30;99.90;;;;;;5010833;28;20070;-76
2023/12/24 04:17:34;;;;;;;0.47;0.47;;;9.30;99.90;;;;;;4982461;28;20054;-75
2023/12/24 04:20:02;;;;;;;0.43;0.43;;;9.30;99.90;;;;;;5015442;28;20046;-75
2023/12/24 04:22:28;;;;;;;1.48;0.55;;;9.40;99.90;;;;;;5000558;28;20118;-75
2023/12/24 04:24:54;;;;;;;0.30;0.30;;;9.40;99.90;;;;;;5000104;28;20054;-75
2023/12/24 04:27:22;;;;;;;4.13;0.50;;;9.40;99.90;;;;;;4984062;28;20078;-75
2023/12/24 04:29:47;;;;;;;1.95;0.50;;;9.40;99.90;;;;;;5016786;28;20050;-75
2023/12/24 04:32:13;;;;;;;0.73;0.57;;;9.40;99.90;;;;;;4999212;28;20053;-75
2023/12/24 04:34:39;;;;;;;0.73;0.47;;;9.40;99.90;;;;;;5000532;28;20132;-75
2023/12/24 04:37:05;;;;;;;1.10;0.45;;;9.40;99.90;;;;;;4999378;28;20053;-75
2023/12/24 04:39:30;;;;;;;2.35;0.50;;;9.40;99.90;;;;;;5017155;28;20042;-75
2023/12/24 04:41:56;;;;;;;0.82;0.47;;;9.40;99.90;;;;;;5015568;28;20057;-75
2023/12/24 04:44:22;;;;;;;6.93;0.70;;;9.40;99.90;;;;;;4999382;28;20044;-75
2023/12/24 04:46:48;;;;;;;0.75;0.55;;;9.50;99.90;;;;;;5016942;28;20042;-75
2023/12/24 04:49:13;;;;;;;0.73;0.70;;;9.50;99.90;;;;;;5015515;28;20053;-75
2023/12/24 04:51:41;;;;;;;0.75;0.50;;;9.50;99.90;;;;;;4982895;28;20482;-75
2023/12/24 04:54:07;;;;;;;0.30;0.30;;;9.50;99.90;;;;;;4994469;28;20065;-75
2023/12/24 04:56:33;;;;;;;0.38;0.30;;;9.50;99.90;;;;;;4993844;28;20053;-75
2023/12/24 04:58:59;;;;;;;0.50;0.50;;;9.50;99.90;;;;;;5077630;28;20561;-75
2023/12/24 05:01:25;;;;;;;2.58;0.70;;;9.50;99.90;;;;;;4976684;28;20038;-75
2023/12/24 05:03:51;;;;;;;5.45;0.55;;;9.60;99.90;;;;;;5011011;28;20586;-74
2023/12/24 05:06:16;;;;;;;0.60;0.50;;;9.60;99.90;;;;;;5022310;28;20050;-75
2023/12/24 05:08:42;;;;;;;1.17;0.60;;;9.60;99.90;;;;;;4993990;28;20046;-74
2023/12/24 05:11:09;;;;;;;0.65;0.50;;;9.60;99.90;;;;;;4991718;28;20034;-75
2023/12/24 05:13:35;;;;;;;1.08;0.82;;;9.60;99.90;;;;;;5010778;28;20046;-75
2023/12/24 05:16:02;;;;;;;0.98;0.45;;;9.60;99.90;;;;;;4999166;28;20046;-75
2023/12/24 05:18:28;;;;;;;0.50;0.20;;;9.60;99.90;;;;;;4999479;28;20042;-75
2023/12/24 05:20:54;;;;;;;0.88;0.60;;;9.70;99.90;;;;;;5015926;28;20486;-75
2023/12/24 05:23:21;;;;;;;0.47;0.38;;;9.70;99.90;;;;;;4998442;28;20050;-75
2023/12/24 05:25:47;;;;;;;0.25;0.25;;;9.70;99.90;;;;;;5015731;28;20046;-75
2023/12/24 05:28:14;;;;;;;0.52;0.52;;;9.70;99.90;;;;;;5014678;28;20065;-75
2023/12/24 05:30:39;;;;;;;0.55;0.50;;;9.70;99.90;;;;;;5014719;28;20069;-75
2023/12/24 05:33:05;;;;;;;4.28;0.52;;;9.70;99.90;;;;;;4994594;28;20062;-75
2023/12/24 05:35:31;;;;;;;0.43;0.43;;;9.80;99.90;;;;;;4990722;28;20078;-75
2023/12/24 05:37:56;;;;;;;0.43;0.40;;;9.80;99.90;;;;;;5009594;28;20034;-75
2023/12/24 05:40:22;;;;;;;0.30;0.25;;;9.80;99.90;;;;;;4998468;28;20099;-75
2023/12/24 05:42:48;;;;;;;2.90;0.68;;;9.80;99.90;;;;;;4995800;28;20053;-75
2023/12/24 05:45:13;;;;;;;1.90;0.65;;;9.80;99.90;;;;;;5065290;28;20042;-75
2023/12/24 05:47:39;;;;;;;3.78;0.60;;;9.80;99.90;;;;;;5015852;28;20074;-75
2023/12/24 05:50:06;;;;;;;0.75;0.50;;;9.90;99.90;;;;;;4966134;28;20046;-74
2023/12/24 05:52:32;;;;;;;0.70;0.57;;;9.90;99.90;;;;;;4999460;28;20046;-75
2023/12/24 05:54:58;;;;;;;2.10;1.17;;;9.90;99.90;;;;;;4982506;28;20049;-75
2023/12/24 05:57:23;;;;;;;3.08;0.70;;;9.90;99.90;;;;;;5014368;28;20098;-75
2023/12/24 05:59:49;;;;;;;1.73;0.70;;;9.90;99.90;;;;;;4983401;28;20075;-75
2023/12/24 06:02:17;;;;;;;9.13;0.77;;;9.90;99.90;;;;;;5013456;28;21734;-75
2023/12/24 06:04:42;;;;;;;3.55;0.77;;;10.00;99.90;;;;;;4993963;28;20146;-75
2023/12/24 06:07:08;;;;;;;2.80;0.85;;;10.00;99.90;;;;;;4992737;28;20474;-76
2023/12/24 06:09:34;;;;;;;1.90;0.90;;;10.00;99.90;;;;;;4976070;28;20591;-75
2023/12/24 06:11:59;;;;;;;3.72;0.90;;;10.00;99.90;;;;;;4992909;28;20038;-75
2023/12/24 06:14:25;;;;;;;1.15;0.85;;;10.00;99.90;;;;;;4993150;28;20457;-76
2023/12/24 06:16:51;;;;;;;4.05;0.90;;;10.00;99.90;;;;;;4977510;28;20057;-75
2023/12/24 06:19:16;;;;;;;3.55;1.35;;;10.00;99.90;;;;;;5013062;28;20480;-75
2023/12/24 06:21:42;;;;;;;4.13;1.05;;;10.10;99.90;;;;;;4998952;28;20054;-75
2023/12/24 06:24:08;;;;;;;5.70;1.40;;;10.00;99.90;;;;;;4997732;28;20058;-75
2023/12/24 06:26:33;;;;;;;2.33;1.05;;;10.10;99.90;;;;;;4998497;28;20050;-75
2023/12/24 06:28:59;;;;;;;3.38;1.17;;;10.00;99.90;;;;;;5014079;28;20049;-75
2023/12/24 06:31:25;;;;;;;6.78;1.48;;;10.00;99.90;;;;;;5014569;28;20065;-75
2023/12/24 06:33:51;;;;;;;2.17;1.13;;;10.10;99.90;;;;;;4998836;28;20052;-75
2023/12/24 06:36:17;;;;;;;1.17;0.82;;;10.10;99.90;;;;;;5013295;28;20461;-76
2023/12/24 06:38:44;;;;;;;1.65;0.95;;;10.10;99.90;;;;;;4996001;28;20410;-76
2023/12/24 06:41:09;;;;;;;2.05;1.35;;;10.10;99.90;;;;;;5013517;28;20045;-75
2023/12/24 06:43:37;;;;;;;7.22;1.15;;;10.10;99.90;;;;;;4998616;28;20046;-75
2023/12/24 06:46:06;;;;;;;4.22;1.40;;;10.10;99.90;;;;;;4997730;28;20056;-76
2023/12/24 06:48:32;;;;;;;1.23;1.08;;;10.20;99.90;;;;;;5000212;28;20066;-76
2023/12/24 06:50:58;;;;;;;6.53;1.30;;;10.10;99.90;;;;;;4994450;28;20034;-77
2023/12/24 06:53:24;;;;;;;15.40;1.83;;;10.20;99.90;;;;;;4977024;28;20053;-76
2023/12/24 06:55:50;;;;;;;5.30;1.85;;;10.20;99.90;;;;;;4977280;28;20042;-76
2023/12/24 06:58:16;;;;;;;11.40;1.38;;;10.20;99.90;;;;;;5001716;28;20173;-77
2023/12/24 07:00:41;;;;;;;6.68;2.03;;;10.20;99.90;;;;;;4990721;28;20049;-76
2023/12/24 07:03:07;;;;;;;9.00;1.60;;;10.20;99.90;;;;;;4992353;28;20387;-76
2023/12/24 07:05:35;;;;;;;13.02;1.83;;;10.20;99.90;;;;;;4975901;28;20087;-76
2023/12/24 07:08:02;;;;;;;12.45;2.13;;;10.30;99.90;;;;;;5005786;28;20086;-76
2023/12/24 07:10:28;;;;;;;5.97;1.15;;;10.30;99.90;;;;;;4989966;28;20045;-76
2023/12/24 07:12:53;;;;;;;8.07;2.05;;;10.30;99.90;;;;;;4991825;28;20041;-77
2023/12/24 07:15:19;;;;;;;9.80;1.63;;;10.30;99.90;;;;;;5007755;28;20058;-77
2023/12/24 07:17:45;;;;;;;11.98;1.50;;;10.30;99.90;;;;;;4975949;28;20046;-76
2023/12/24 07:20:11;;;;;;;2.97;1.25;;;10.30;99.90;;;;;;4990703;28;20109;-77
2023/12/24 07:22:37;;;;;;;16.80;1.38;;;10.30;99.90;;;;;;4991622;28;20038;-76
2023/12/24 07:25:04;;;;;;;13.93;1.73;;;10.30;99.90;;;;;;5008743;28;20115;-76
2023/12/24 07:27:29;;;;;;;5.13;1.30;;;10.40;99.90;;;;;;4991711;28;20046;-76
2023/12/24 07:29:56;;;;;;;7.55;1.90;;;10.40;99.90;;;;;;4990007;28;20125;-76
2023/12/24 07:32:21;;;;;;;1.73;0.82;;;10.40;99.90;;;;;;4973412;28;20106;-77
2023/12/24 07:34:47;;;;;;;7.90;1.75;;;10.40;99.90;;;;;;5007093;28;20050;-77
2023/12/24 07:37:13;;;;;;;2.90;1.00;;;10.40;99.90;;;;;;4991040;28;20235;-76
2023/12/24 07:39:39;;;;;;;3.72;1.40;;;10.50;99.90;;;;;;5013831;28;20540;-76
2023/12/24 07:42:05;;;;;;;11.00;1.90;;;10.40;99.90;;;;;;4989273;28;20050;-76
2023/12/24 07:44:31;;;;;;;4.45;1.13;;;10.40;99.90;;;;;;5009612;28;20050;-77
2023/12/24 07:46:57;;;;;;;6.88;1.55;;;10.40;99.90;;;;;;5010339;28;20057;-76
2023/12/24 07:49:22;;;;;;;7.82;1.55;;;10.40;99.90;;;;;;4994400;28;20064;-78
2023/12/24 07:51:48;;;;;;;4.53;1.13;;;10.50;99.90;;;;;;5010983;28;20081;-77
2023/12/24 07:54:14;;;;;;;4.50;1.20;;;10.50;99.90;;;;;;5009277;28;20050;-77
2023/12/24 07:56:40;;;;;;;8.05;1.23;;;10.50;99.90;;;;;;4994320;28;20072;-77
2023/12/24 07:59:05;;;;;;;5.50;1.58;;;10.60;99.90;;;;;;4994408;28;20093;-77
2023/12/24 08:01:31;;;;;;;10.35;1.63;;;10.50;99.90;;;;;;4993536;28;20053;-77
2023/12/24 08:03:57;;;;;;;12.70;1.85;;;10.60;99.90;;;;;;5008292;28;20046;-77
2023/12/24 08:06:22;;;;;;;5.20;0.90;;;10.60;99.90;;;;;;4994005;28;20255;-77
2023/12/24 08:08:48;;;;;;;1.23;0.90;;;10.60;99.90;;;;;;4992243;28;20046;-76
2023/12/24 08:11:14;;;;;;;4.57;1.10;;;10.70;99.90;;;;;;4993148;28;20046;-78
2023/12/24 08:13:39;;;;;;;13.52;1.92;;;10.70;99.90;;;;;;5025211;28;20053;-78
2023/12/24 08:16:06;;;;;;;6.38;1.73;;;10.70;99.90;;;;;;4995635;28;20030;-77
2023/12/24 08:18:32;;;;;;;7.45;1.33;;;10.70;99.90;;;;;;4981181;28;20436;-78
2023/12/24 08:20:57;;;;;;;11.85;1.50;;;10.70;99.90;;;;;;5013147;28;20377;-77
2023/12/24 08:23:23;;;;;;;5.47;1.42;;;10.70;99.90;;;;;;5010301;28;20049;-77
2023/12/24 08:25:49;;;;;;;10.93;1.67;;;10.70;99.90;;;;;;4994447;28;20405;-77
2023/12/24 08:28:15;;;;;;;5.60;0.73;;;10.80;99.90;;;;;;4992431;28;20402;-77
2023/12/24 08:30:40;;;;;;;11.07;1.52;;;10.80;99.90;;;;;;4995332;28;20058;-77
2023/12/24 08:33:06;;;;;;;6.07;1.23;;;10.80;99.90;;;;;;4977543;28;20046;-77
2023/12/24 08:35:32;;;;;;;12.18;1.23;;;10.80;99.90;;;;;;5009263;28;20128;-77
2023/12/24 08:37:58;;;;;;;8.35;1.50;;;10.80;99.90;;;;;;4994926;28;20103;-77
2023/12/24 08:40:27;;;;;;;9.15;2.03;;;10.80;99.90;;;;;;4982866;28;20045;-77
2023/12/24 08:42:53;;;;;;;12.20;1.40;;;10.90;99.90;;;;;;5014022;28;20050;-77
2023/12/24 08:45:19;;;;;;;2.28;0.95;;;10.80;99.90;;;;;;5007888;28;20107;-77
2023/12/24 08:47:44;;;;;;;2.80;1.40;;;10.90;99.90;;;;;;4995181;28;20109;-77
2023/12/24 08:50:10;;;;;;;4.28;1.48;;;10.90;99.90;;;;;;4990029;28;20511;-75
2023/12/24 08:52:36;;;;;;;6.47;2.05;;;10.90;99.90;;;;;;5008377;28;20060;-76
2023/12/24 08:55:02;;;;;;;6.70;1.35;;;10.90;99.90;;;;;;4992762;28;20049;-77
2023/12/24 08:57:28;;;;;;;2.53;1.17;;;10.90;99.90;;;;;;4992138;28;20144;-78
2023/12/24 08:59:54;;;;;;;5.40;1.30;;;10.90;99.90;;;;;;4995637;28;20045;-78
2023/12/24 09:02:19;;;;;;;3.63;1.05;;;10.90;99.90;;;;;;4975488;28;20053;-78
2023/12/24 09:04:47;;;;;;;6.38;1.02;;;10.90;99.90;;;;;;4993417;28;20113;-77
2023/12/24 09:07:14;;;;;;;4.32;1.50;;;10.90;99.90;;;;;;4975255;28;20058;-77
2023/12/24 09:09:39;;;;;;;8.52;1.10;;;11.00;99.90;;;;;;4992625;28;20042;-77
2023/12/24 09:12:06;;;;;;;5.78;1.25;;;10.90;99.90;;;;;;4992284;28;20126;-77
2023/12/24 09:14:31;;;;;;;5.10;1.17;;;11.00;99.90;;;;;;5007724;28;20869;-77
2023/12/24 09:16:57;;;;;;;4.50;0.90;;;11.00;99.90;;;;;;5009861;28;20042;-77
2023/12/24 09:19:23;;;;;;;2.53;1.10;;;11.00;99.90;;;;;;5007736;28;20053;-77
2023/12/24 09:21:48;;;;;;;9.95;1.45;;;11.00;99.90;;;;;;5024729;28;20052;-77
2023/12/24 09:24:14;;;;;;;2.22;0.90;;;11.00;99.90;;;;;;4991762;28;20391;-77
2023/12/24 09:26:40;;;;;;;7.25;1.58;;;11.00;99.90;;;;;;4991205;28;20058;-77
2023/12/24 09:29:06;;;;;;;5.15;1.00;;;11.10;99.90;;;;;;5009424;28;20072;-77
2023/12/24 09:31:32;;;;;;;10.10;1.20;;;11.10;99.90;;;;;;5025557;28;20072;-78
2023/12/24 09:33:59;;;;;;;7.78;0.95;;;11.10;99.90;;;;;;4993334;28;20570;-77
2023/12/24 09:36:25;;;;;;;2.20;0.85;;;11.10;99.90;;;;;;4991987;28;20627;-78
2023/12/24 09:38:50;;;;;;;3.17;1.13;;;11.10;99.90;;;;;;4997681;28;20038;-78
2023/12/24 09:41:18;;;;;;;4.68;1.25;;;11.10;99.90;;;;;;4997351;28;20095;-78
2023/12/24 09:43:44;;;;;;;10.32;1.30;;;11.20;99.90;;;;;;5013602;28;20106;-78
2023/12/24 09:46:09;;;;;;;5.22;0.90;;;11.20;99.90;;;;;;4990861;28;20095;-78
2023/12/24 09:48:35;;;;;;;6.93;1.10;;;11.20;99.90;;;;;;4999821;28;20046;-78
2023/12/24 09:51:06;;;;;;;5.45;1.08;;;11.20;99.90;;;;;;5023748;28;20042;-78
2023/12/24 09:53:32;;;;;;;6.20;2.03;;;11.20;99.90;;;;;;4991445;28;20050;-78
2023/12/24 09:55:58;;;;;;;7.30;1.75;;;11.30;99.90;;;;;;4993256;28;20034;-78
2023/12/24 09:58:24;;;;;;;6.75;1.80;;;11.30;99.90;;;;;;5006004;28;20045;-78
2023/12/24 10:00:50;;;;;;;8.13;1.00;;;11.30;99.90;;;;;;5007058;28;20048;-79
2023/12/24 10:03:15;;;;;;;9.75;1.23;;;11.30;99.90;;;;;;4991937;28;20105;-78
2023/12/24 10:06:04;;;;;;;8.48;1.00;;;11.40;99.90;;;;;;4995429;28;20071;-78
2023/12/24 10:08:31;;;;;;;2.90;0.98;;;11.40;99.90;;;;;;5005547;28;20099;-79
2023/12/24 10:11:10;;;;;;;4.68;1.33;;;11.50;99.90;;;;;;4991760;28;20057;-79
2023/12/24 10:13:35;;;;;;;5.85;0.50;;;11.50;99.90;;;;;;5007790;28;20049;-79
2023/12/24 10:16:02;;;;;;;8.35;1.02;;;11.50;99.90;;;;;;5025999;28;20101;-79
2023/12/24 10:18:28;;;;;;;5.60;0.98;;;11.50;99.90;;;;;;4998368;28;20516;-79
2023/12/24 10:21:06;;;;;;;5.60;1.13;;;11.50;99.90;;;;;;4998819;28;20094;-78
2023/12/24 10:23:32;;;;;;;3.15;1.10;;;11.50;99.90;;;;;;5011991;28;20105;-78
2023/12/24 10:26:03;;;;;;;6.18;0.90;;;11.60;99.90;;;;;;4995350;28;20073;-79
2023/12/24 10:28:29;;;;;;;6.45;1.45;;;11.60;99.90;;;;;;5006561;28;20220;-78
2023/12/24 10:31:08;;;;;;;2.53;0.80;;;11.60;99.90;;;;;;4997071;28;20049;-79
2023/12/24 10:33:38;;;;;;;4.40;1.08;;;11.60;99.90;;;;;;4989841;28;20079;-79
2023/12/24 10:36:04;;;;;;;1.20;0.65;;;11.60;99.90;;;;;;5006194;28;20046;-79
2023/12/24 10:38:30;;;;;;;4.20;0.93;;;11.60;99.90;;;;;;5011226;28;20057;-79
2023/12/24 10:40:56;;;;;;;3.50;0.70;;;11.60;99.90;;;;;;5013220;28;20048;-80
2023/12/24 10:43:22;;;;;;;4.65;0.43;;;11.70;99.90;;;;;;4994139;28;20049;-78
2023/12/24 10:45:48;;;;;;;4.35;1.50;;;11.70;99.90;;;;;;5007201;28;20057;-79
2023/12/24 10:48:14;;;;;;;7.93;1.42;;;11.70;99.90;;;;;;4991429;28;20046;-79
2023/12/24 10:50:40;;;;;;;4.20;1.13;;;11.70;99.90;;;;;;5008667;28;20066;-79
2023/12/24 10:53:06;;;;;;;9.80;1.05;;;11.70;99.90;;;;;;4992463;28;20058;-79
2023/12/24 10:55:34;;;;;;;3.20;0.85;;;11.80;99.90;;;;;;4989675;28;20343;-80
2023/12/24 10:58:30;;;;;;;7.88;1.17;;;11.80;99.90;;;;;;4990404;28;20043;-79
2023/12/24 11:01:07;;;;;;;3.83;0.95;;;11.80;99.90;;;;;;4994003;28;20046;-79
2023/12/24 11:03:44;;;;;;;9.43;1.80;;;11.80;99.90;;;;;;4992673;28;20078;-79
2023/12/24 11:06:09;;;;;;;5.68;0.80;;;11.90;99.90;;;;;;5006565;28;20078;-79
2023/12/24 11:08:35;;;;;;;1.80;0.80;;;11.80;99.90;;;;;;4993005;28;20093;-79
2023/12/24 11:11:07;;;;;;;7.28;1.13;;;11.90;99.90;;;;;;5007412;28;20122;-79
2023/12/24 11:13:32;;;;;;;3.78;1.05;;;11.90;99.90;;;;;;4995619;28;20037;-79
2023/12/24 11:15:59;;;;;;;4.10;1.05;;;11.90;99.90;;;;;;5011263;28;20046;-79
2023/12/24 11:18:45;;;;;;;6.70;1.08;;;11.90;99.90;;;;;;5013411;28;20414;-79
2023/12/24 11:21:12;;;;;;;7.13;0.93;;;11.90;99.90;;;;;;4993505;28;20048;-79
2023/12/24 11:23:41;;;;;;;10.13;1.38;;;11.90;99.90;;;;;;5011988;28;20054;-80
2023/12/24 11:26:30;;;;;;;3.83;0.85;;;11.90;99.90;;;;;;4995702;28;20060;-79
2023/12/24 11:28:56;;;;;;;4.47;0.90;;;11.90;99.90;;;;;;5013870;28;20074;-79
2023/12/24 11:31:26;;;;;;;8.38;1.05;;;11.90;99.90;;;;;;5012472;28;20061;-79
2023/12/24 11:33:54;;;;;;;6.53;1.02;;;11.90;99.90;;;;;;4996718;28;20042;-80
2023/12/24 11:36:21;;;;;;;4.03;1.27;;;11.90;99.90;;;;;;5008270;28;20050;-79
2023/12/24 11:38:52;;;;;;;9.93;1.10;;;11.90;99.90;;;;;;4996521;28;20038;-79
2023/12/24 11:41:20;;;;;;;1.23;0.85;;;11.90;99.90;;;;;;5009772;28;20447;-79
2023/12/24 11:43:57;;;;;;;5.07;0.88;;;11.90;99.90;;;;;;5017580;28;20068;-79
2023/12/24 11:46:24;;;;;;;4.38;0.70;;;11.90;99.90;;;;;;5011132;28;20058;-79
2023/12/24 11:48:51;;;;;;;6.38;1.30;;;11.90;99.90;;;;;;5009772;28;20556;-78
2023/12/24 11:51:23;;;;;;;3.05;0.73;;;11.90;99.90;;;;;;5015276;28;20054;-80
2023/12/24 11:53:49;;;;;;;4.80;1.05;;;11.80;99.90;;;;;;5010679;28;20105;-80
2023/12/24 11:56:17;;;;;;;1.35;0.80;;;11.80;99.90;;;;;;4993796;28;20042;-79
2023/12/24 11:58:48;;;;;;;3.85;1.17;;;11.80;99.90;;;;;;5009173;28;20049;-79
2023/12/24 12:01:19;;;;;;;2.15;1.10;;;11.80;99.90;;;;;;5008750;28;20052;-79
2023/12/24 12:03:45;;;;;;;3.90;1.25;;;11.90;99.90;;;;;;5011472;28;20046;-79
2023/12/24 12:06:11;;;;;;;6.68;1.42;;;11.90;99.90;;;;;;4993287;28;20610;-79
2023/12/24 12:08:36;;;;;;;2.72;0.68;;;11.90;99.90;;;;;;5011492;28;20094;-79
2023/12/24 12:11:02;;;;;;;2.97;0.90;;;11.90;99.90;;;;;;4994597;28;20587;-79
2023/12/24 12:13:28;;;;;;;1.85;0.75;;;11.90;99.90;;;;;;4977247;28;20052;-79
2023/12/24 12:15:54;;;;;;;4.68;1.17;;;11.90;99.90;;;;;;5009974;28;20042;-79
2023/12/24 12:18:21;;;;;;;2.70;1.10;;;11.90;99.90;;;;;;5008231;28;20102;-79
2023/12/24 12:20:47;;;;;;;5.35;1.20;;;11.90;99.90;;;;;;5080268;28;20045;-79
2023/12/24 12:23:16;;;;;;;5.20;1.00;;;11.90;99.90;;;;;;4991483;28;20038;-79
2023/12/24 12:25:43;;;;;;;5.85;1.00;;;11.90;99.90;;;;;;4994288;28;20506;-79
2023/12/24 12:28:09;;;;;;;3.65;1.02;;;11.90;99.90;;;;;;5007255;28;20129;-79
2023/12/24 12:30:35;;;;;;;7.45;1.30;;;12.00;99.90;;;;;;5010831;28;20041;-79
2023/12/24 12:33:01;;;;;;;5.18;0.68;;;12.00;99.90;;;;;;4994527;28;20068;-79
2023/12/24 12:35:27;;;;;;;3.60;1.80;;;12.00;99.90;;;;;;5006238;28;20075;-79
2023/12/24 12:37:52;;;;;;;5.93;1.42;;;12.00;99.90;;;;;;4990300;28;20043;-78
2023/12/24 12:40:18;;;;;;;6.60;0.93;;;12.00;99.90;;;;;;5002981;28;20046;-78
2023/12/24 12:42:44;;;;;;;2.97;0.85;;;12.00;99.90;;;;;;4985721;28;20121;-78
2023/12/24 12:45:10;;;;;;;1.63;0.80;;;12.00;99.90;;;;;;5002095;28;20041;-77
2023/12/24 12:47:36;;;;;;;2.67;1.17;;;12.00;99.90;;;;;;5004761;28;20046;-77